Time;durP1;ratioP1;P1;durP2;ratioP2;P2;SDS_P1;SDS_P2;PMS_P1;PMS_P2;Temp;Humidity;BMP_temperature;BMP_pressure;BME280_temperature;BME280_humidity;BME280_pressure;Samples;Min_cycle;Max_cycle;Signal;HPM_P1;HPM_P2
2022/12/18 00:57:06;;;;;;;16.23;12.40;;;2.00;99.90;;;;;;4659402;27;10001395;-95
2022/12/18 00:59:37;;;;;;;16.30;13.03;;;2.20;99.90;;;;;;5121280;28;20461;-93
2022/12/18 01:02:08;;;;;;;16.30;11.73;;;2.20;99.90;;;;;;5092470;28;20207;-90
2022/12/18 01:04:41;;;;;;;16.83;13.03;;;2.30;99.90;;;;;;5085067;28;20232;-89
2022/12/18 01:07:16;;;;;;;14.63;11.90;;;2.30;99.90;;;;;;5100116;28;20202;-93
2022/12/18 01:09:48;;;;;;;19.73;12.53;;;2.30;99.90;;;;;;5100923;28;20242;-91
2022/12/18 01:12:22;;;;;;;18.43;12.43;;;2.40;99.90;;;;;;5102655;28;20242;-93
2022/12/18 01:14:54;;;;;;;17.53;12.23;;;2.40;99.90;;;;;;5103571;28;20706;-90
2022/12/18 01:17:27;;;;;;;15.00;12.00;;;2.50;99.90;;;;;;5106102;28;20301;-94
2022/12/18 01:19:57;;;;;;;15.57;12.20;;;2.50;99.90;;;;;;5099822;28;20700;-93
2022/12/18 01:22:33;;;;;;;14.57;13.07;;;2.60;99.90;;;;;;5109130;28;20210;-94
2022/12/18 01:25:07;;;;;;;15.17;12.53;;;2.50;99.90;;;;;;5112938;28;20206;-90
2022/12/18 01:27:45;;;;;;;18.20;13.10;;;2.60;99.90;;;;;;5087901;28;20387;-91
2022/12/18 01:30:16;;;;;;;16.17;12.17;;;2.60;99.90;;;;;;5092905;28;20638;-91
2022/12/18 01:32:50;;;;;;;15.00;12.60;;;2.60;99.90;;;;;;5109593;28;20281;-92
2022/12/18 01:35:21;;;;;;;16.90;11.93;;;2.70;99.90;;;;;;5102436;28;20230;-92
2022/12/18 01:38:04;;;;;;;13.17;11.43;;;2.70;99.90;;;;;;5104979;28;20210;-92
2022/12/18 01:40:36;;;;;;;16.37;10.17;;;2.70;99.90;;;;;;5105418;28;20199;-92
2022/12/18 01:43:12;;;;;;;12.17;9.60;;;2.70;99.90;;;;;;5104943;28;20198;-93
2022/12/18 01:45:47;;;;;;;10.13;8.73;;;2.80;99.90;;;;;;5116475;28;20279;-91
2022/12/18 01:48:21;;;;;;;11.77;9.07;;;2.90;99.90;;;;;;5124886;28;20202;-92
2022/12/18 01:50:54;;;;;;;12.13;8.60;;;2.90;99.90;;;;;;5106002;28;20198;-93
2022/12/18 01:53:30;;;;;;;10.80;8.07;;;2.90;99.90;;;;;;5107713;28;20203;-93
2022/12/18 01:56:09;;;;;;;10.97;7.67;;;2.90;99.90;;;;;;5077803;28;20242;-92
2022/12/18 01:58:47;;;;;;;8.20;6.97;;;2.90;99.90;;;;;;5103336;28;20214;-94
2022/12/18 02:01:19;;;;;;;8.93;6.90;;;2.90;99.90;;;;;;5108482;28;20210;-93
2022/12/18 02:03:54;;;;;;;7.30;6.60;;;3.00;99.90;;;;;;5104489;28;20256;-90
2022/12/18 02:06:33;;;;;;;8.77;6.60;;;3.00;99.90;;;;;;5083168;28;20217;-94
2022/12/18 02:09:12;;;;;;;7.90;7.10;;;2.90;99.90;;;;;;5093362;28;20264;-95
2022/12/18 02:11:54;;;;;;;8.13;7.23;;;2.90;99.90;;;;;;5095182;28;20213;-94
2022/12/18 02:14:36;;;;;;;8.30;7.40;;;2.90;99.90;;;;;;5087729;28;20204;-95
2022/12/18 02:17:16;;;;;;;9.73;7.67;;;2.90;99.90;;;;;;5098062;28;20237;-95
2022/12/18 02:20:03;;;;;;;7.77;6.73;;;2.90;99.90;;;;;;5098624;28;20203;-94
2022/12/18 02:22:45;;;;;;;7.40;6.57;;;2.90;99.90;;;;;;5092956;28;20214;-94
2022/12/18 02:25:31;;;;;;;8.07;6.83;;;2.90;99.90;;;;;;5080638;28;20204;-94
2022/12/18 02:28:10;;;;;;;9.10;7.17;;;2.90;99.90;;;;;;5097623;28;20203;-93
2022/12/18 02:30:45;;;;;;;9.40;8.07;;;2.90;99.90;;;;;;5080727;28;20209;-93
2022/12/18 02:33:17;;;;;;;8.63;7.50;;;2.90;99.90;;;;;;5098080;28;20255;-94
2022/12/18 02:36:04;;;;;;;11.10;7.97;;;2.90;99.90;;;;;;5096330;28;20442;-94
2022/12/18 02:38:40;;;;;;;10.70;7.97;;;2.90;99.90;;;;;;5098591;28;20253;-93
2022/12/18 02:41:12;;;;;;;11.07;8.43;;;2.90;99.90;;;;;;5099110;28;20214;-93
2022/12/18 02:43:49;;;;;;;10.17;8.27;;;2.90;99.90;;;;;;5094563;28;20199;-96
2022/12/18 02:46:35;;;;;;;8.53;7.53;;;2.90;99.90;;;;;;5101295;28;20207;-94
2022/12/18 02:49:14;;;;;;;10.40;8.17;;;2.90;99.90;;;;;;5096645;28;20244;-93
2022/12/18 02:51:54;;;;;;;8.57;7.13;;;2.90;99.90;;;;;;5115351;28;20274;-94
2022/12/18 02:54:37;;;;;;;11.93;7.43;;;2.90;99.90;;;;;;5092796;28;20213;-94
2022/12/18 02:57:19;;;;;;;11.07;7.70;;;3.00;99.90;;;;;;5110264;28;20222;-94
2022/12/18 03:00:00;;;;;;;11.20;8.20;;;3.00;99.90;;;;;;5116226;28;20199;-94
2022/12/18 03:02:46;;;;;;;9.17;7.17;;;2.90;99.90;;;;;;5113583;28;20241;-93
2022/12/18 03:05:22;;;;;;;11.07;7.87;;;3.00;99.90;;;;;;5098243;28;20208;-93
2022/12/18 03:07:58;;;;;;;7.93;6.87;;;3.00;99.90;;;;;;5090870;28;20207;-94
2022/12/18 03:10:33;;;;;;;9.00;7.47;;;3.00;99.90;;;;;;5096398;28;20203;-94
2022/12/18 03:13:10;;;;;;;9.10;7.37;;;3.00;99.90;;;;;;5105792;28;20202;-94
2022/12/18 03:15:49;;;;;;;9.87;7.90;;;3.10;99.90;;;;;;5099511;28;20199;-94
2022/12/18 03:18:40;;;;;;;10.30;8.53;;;3.10;99.90;;;;;;5089683;28;20199;-95
2022/12/18 03:21:13;;;;;;;11.13;8.83;;;3.10;99.90;;;;;;5099480;28;20290;-95
2022/12/18 03:24:02;;;;;;;11.97;8.40;;;3.00;99.90;;;;;;5106748;28;20202;-94
2022/12/18 03:26:38;;;;;;;11.40;10.03;;;3.10;99.90;;;;;;5095246;28;20204;-94
2022/12/18 03:29:17;;;;;;;14.30;10.07;;;3.10;99.90;;;;;;5104408;28;20213;-94
2022/12/18 03:32:01;;;;;;;11.93;10.20;;;3.10;99.90;;;;;;5091747;28;20271;-93
2022/12/18 03:34:35;;;;;;;13.53;10.33;;;3.10;99.90;;;;;;5099935;28;20199;-93
2022/12/18 03:37:07;;;;;;;12.40;10.67;;;3.10;99.90;;;;;;5094565;28;20795;-94
2022/12/18 03:39:39;;;;;;;15.37;10.83;;;3.10;99.90;;;;;;5093318;28;20203;-95
2022/12/18 03:42:18;;;;;;;12.00;9.30;;;3.10;99.90;;;;;;5082611;28;20196;-95
2022/12/18 03:44:59;;;;;;;12.93;10.43;;;3.10;99.90;;;;;;5084485;28;20211;-94
2022/12/18 03:47:41;;;;;;;12.30;10.00;;;3.10;99.90;;;;;;5090153;28;20226;-94
2022/12/18 03:50:20;;;;;;;12.93;9.90;;;3.10;99.90;;;;;;5089979;28;20214;-94
2022/12/18 03:52:55;;;;;;;11.93;8.80;;;3.10;99.90;;;;;;5099550;28;20186;-94
2022/12/18 03:55:28;;;;;;;11.43;9.40;;;3.20;99.90;;;;;;5113465;28;20194;-93
2022/12/18 03:58:00;;;;;;;10.23;8.47;;;3.10;99.90;;;;;;5117915;28;20238;-94
2022/12/18 04:00:32;;;;;;;14.07;9.30;;;3.20;99.90;;;;;;5117850;28;20213;-94
2022/12/18 04:03:08;;;;;;;12.87;8.70;;;3.20;99.90;;;;;;5109016;28;20239;-96
2022/12/18 04:05:44;;;;;;;17.10;9.73;;;3.20;99.90;;;;;;5087204;28;20229;-96
2022/12/18 04:08:16;;;;;;;12.33;10.00;;;3.20;99.90;;;;;;5090013;28;20191;-93
2022/12/18 04:10:48;;;;;;;16.43;10.23;;;3.30;99.90;;;;;;5097101;28;20289;-94
2022/12/18 04:13:25;;;;;;;11.93;10.63;;;3.30;99.90;;;;;;5098410;28;20584;-94
2022/12/18 04:15:56;;;;;;;23.47;10.53;;;3.30;99.90;;;;;;5104786;28;20201;-93
2022/12/18 04:18:28;;;;;;;13.50;10.00;;;3.30;99.90;;;;;;5114776;28;20274;-93
2022/12/18 04:20:59;;;;;;;15.30;10.87;;;3.30;99.90;;;;;;5108017;28;20238;-94
2022/12/18 04:23:33;;;;;;;12.13;10.60;;;3.30;99.90;;;;;;5101339;28;20199;-92
2022/12/18 04:26:05;;;;;;;14.87;11.20;;;3.30;99.90;;;;;;5098465;28;20290;-90
2022/12/18 04:28:36;;;;;;;14.43;11.23;;;3.30;99.90;;;;;;5098134;28;20294;-90
2022/12/18 04:31:10;;;;;;;15.83;11.77;;;3.30;99.90;;;;;;5091278;28;20207;-90
2022/12/18 04:33:47;;;;;;;15.10;11.57;;;3.30;99.90;;;;;;5078401;28;20211;-93
2022/12/18 04:36:18;;;;;;;18.27;12.40;;;3.30;99.90;;;;;;5085512;28;20605;-93
2022/12/18 04:38:55;;;;;;;15.83;13.33;;;3.20;99.90;;;;;;5095672;28;20658;-94
2022/12/18 04:41:27;;;;;;;17.20;13.93;;;3.20;99.90;;;;;;5087568;28;20212;-93
2022/12/18 04:44:04;;;;;;;19.33;13.80;;;3.20;99.90;;;;;;5091875;28;20216;-93
2022/12/18 04:46:36;;;;;;;18.87;14.63;;;3.20;99.90;;;;;;5087319;28;20203;-92
2022/12/18 04:49:10;;;;;;;21.20;14.73;;;3.20;99.90;;;;;;5095093;28;20207;-93
2022/12/18 04:51:44;;;;;;;21.90;15.80;;;3.20;99.90;;;;;;5073435;28;20198;-92
2022/12/18 04:54:15;;;;;;;20.17;15.47;;;3.20;99.90;;;;;;5082482;28;20203;-91
2022/12/18 04:56:51;;;;;;;18.63;14.50;;;3.20;99.90;;;;;;5085617;28;20211;-91
2022/12/18 04:59:26;;;;;;;16.87;13.77;;;3.20;99.90;;;;;;5093535;28;20651;-92
2022/12/18 05:02:01;;;;;;;19.80;14.97;;;3.20;99.90;;;;;;5093591;28;20260;-94
2022/12/18 05:04:40;;;;;;;17.80;15.00;;;3.20;99.90;;;;;;4741910;28;10001327;-90
2022/12/18 05:07:14;;;;;;;22.50;15.23;;;3.20;99.90;;;;;;5090789;28;20217;-90
2022/12/18 05:09:48;;;;;;;19.60;14.93;;;3.20;99.90;;;;;;5086554;28;20205;-91
2022/12/18 05:12:19;;;;;;;19.30;15.00;;;3.20;99.90;;;;;;5083584;28;20562;-90
2022/12/18 05:14:50;;;;;;;22.67;15.13;;;3.20;99.90;;;;;;5079100;28;20242;-87
2022/12/18 05:20:15;;;;;;;21.43;16.17;;;3.20;99.90;;;;;;5076294;28;20207;-89
2022/12/18 05:22:47;;;;;;;20.27;15.20;;;3.30;99.90;;;;;;5087162;28;21001;-91
2022/12/18 05:25:18;;;;;;;20.93;15.40;;;3.30;99.90;;;;;;5091843;28;20203;-89
2022/12/18 05:27:56;;;;;;;17.87;14.47;;;3.30;99.90;;;;;;5079054;28;20531;-90
2022/12/18 05:30:27;;;;;;;18.53;14.27;;;3.40;99.90;;;;;;5085330;28;20209;-94
2022/12/18 05:33:05;;;;;;;18.27;14.40;;;3.40;99.90;;;;;;5080394;28;20204;-91
2022/12/18 05:35:38;;;;;;;18.73;13.93;;;3.50;99.90;;;;;;5085156;28;20203;-91
2022/12/18 05:38:09;;;;;;;20.03;14.30;;;3.50;99.90;;;;;;5086953;28;20235;-92
2022/12/18 05:40:44;;;;;;;16.17;13.73;;;3.50;99.90;;;;;;5097692;28;20206;-88
2022/12/18 05:43:16;;;;;;;17.33;12.80;;;3.50;99.90;;;;;;5095888;28;20233;-92
2022/12/18 05:45:54;;;;;;;17.10;12.80;;;3.50;99.90;;;;;;5088337;28;20359;-91
2022/12/18 05:48:28;;;;;;;15.17;10.73;;;3.50;99.90;;;;;;5093661;28;20202;-93
2022/12/18 05:51:10;;;;;;;18.90;11.83;;;3.60;99.90;;;;;;5095015;28;20207;-89
2022/12/18 05:53:44;;;;;;;12.93;10.73;;;3.60;99.90;;;;;;5095300;28;20246;-89
2022/12/18 05:56:18;;;;;;;12.63;10.73;;;3.60;99.90;;;;;;5088001;28;20229;-92
2022/12/18 05:58:50;;;;;;;11.33;9.60;;;3.60;99.90;;;;;;5079727;28;20239;-92
2022/12/18 06:01:23;;;;;;;11.87;9.80;;;3.70;99.90;;;;;;5093307;28;20222;-93
2022/12/18 06:03:57;;;;;;;13.40;9.50;;;3.70;99.90;;;;;;5068281;28;20302;-92
2022/12/18 06:06:32;;;;;;;11.77;9.50;;;3.70;99.90;;;;;;5096002;28;20253;-93
2022/12/18 06:09:08;;;;;;;11.43;8.87;;;3.70;99.90;;;;;;5100689;28;20207;-93
2022/12/18 06:11:46;;;;;;;14.90;9.20;;;3.70;99.90;;;;;;5112889;28;20186;-92
2022/12/18 06:14:18;;;;;;;10.87;8.67;;;3.70;99.90;;;;;;5111954;28;20251;-91
2022/12/18 06:16:52;;;;;;;12.63;10.10;;;3.70;99.90;;;;;;5084975;28;20199;-93
2022/12/18 06:19:28;;;;;;;11.93;9.33;;;3.80;99.90;;;;;;5070181;28;20238;-90
2022/12/18 06:22:01;;;;;;;11.60;9.73;;;3.70;99.90;;;;;;5097110;28;20286;-93
2022/12/18 06:24:40;;;;;;;13.60;10.07;;;3.70;99.90;;;;;;5097710;28;20659;-91
2022/12/18 06:27:12;;;;;;;9.47;8.17;;;3.70;99.90;;;;;;5086960;28;20211;-93
2022/12/18 06:29:44;;;;;;;10.57;7.10;;;3.70;99.90;;;;;;5084421;28;20218;-93
2022/12/18 06:32:21;;;;;;;9.93;7.20;;;3.70;99.90;;;;;;5087295;28;20218;-93
2022/12/18 06:34:52;;;;;;;9.33;6.93;;;3.80;99.90;;;;;;5093313;28;20647;-92
2022/12/18 06:37:40;;;;;;;12.60;6.63;;;3.80;99.90;;;;;;5107530;28;20206;-92
2022/12/18 06:40:12;;;;;;;10.40;7.13;;;3.70;99.90;;;;;;5097687;28;20215;-93
2022/12/18 06:42:48;;;;;;;11.67;7.00;;;3.80;99.90;;;;;;5096834;28;20285;-93
2022/12/18 06:45:20;;;;;;;10.33;6.23;;;3.80;99.90;;;;;;5098508;28;20206;-91
2022/12/18 06:48:00;;;;;;;7.43;5.27;;;3.80;99.90;;;;;;5065839;28;20211;-92
2022/12/18 06:50:34;;;;;;;9.87;5.50;;;3.80;99.90;;;;;;5089431;28;20205;-92
2022/12/18 06:53:20;;;;;;;8.13;5.70;;;3.80;99.90;;;;;;5095593;28;20238;-91
2022/12/18 06:56:01;;;;;;;7.50;4.97;;;3.80;99.90;;;;;;5078823;28;20226;-91
2022/12/18 06:58:38;;;;;;;7.57;5.27;;;3.80;99.90;;;;;;5098135;28;20378;-92
2022/12/18 07:01:12;;;;;;;7.13;5.70;;;3.80;99.90;;;;;;5099804;28;20203;-91
2022/12/18 07:03:44;;;;;;;10.60;5.90;;;3.80;99.90;;;;;;5095980;28;20203;-92
2022/12/18 07:06:19;;;;;;;8.63;5.60;;;3.80;99.90;;;;;;5097023;28;20206;-92
2022/12/18 07:08:59;;;;;;;7.60;5.20;;;3.80;99.90;;;;;;5079011;28;20706;-91
2022/12/18 07:11:31;;;;;;;11.43;6.50;;;3.80;99.90;;;;;;5096836;28;20203;-92
2022/12/18 07:14:02;;;;;;;8.23;5.10;;;3.80;99.90;;;;;;5092971;28;20670;-92
2022/12/18 07:16:35;;;;;;;7.50;4.90;;;3.80;99.90;;;;;;5095995;28;20724;-92
2022/12/18 07:19:08;;;;;;;10.43;5.83;;;3.80;99.90;;;;;;5095043;28;20242;-91
2022/12/18 07:24:37;;;;;;;7.90;5.10;;;3.80;99.90;;;;;;5054458;28;20254;-91
2022/12/18 07:27:09;;;;;;;7.10;4.57;;;3.80;99.90;;;;;;5056274;28;20299;-92
2022/12/18 07:29:43;;;;;;;6.13;4.50;;;3.90;99.90;;;;;;5045731;28;20654;-92
2022/12/18 07:32:17;;;;;;;9.90;5.20;;;3.90;99.90;;;;;;5056056;28;20214;-91
2022/12/18 07:34:48;;;;;;;6.80;4.50;;;3.90;99.90;;;;;;5055365;28;20226;-92
2022/12/18 07:37:21;;;;;;;8.07;4.80;;;3.90;99.90;;;;;;5055564;28;20204;-91
2022/12/18 07:39:58;;;;;;;7.20;5.03;;;3.80;99.90;;;;;;5055835;28;20590;-91
2022/12/18 07:42:33;;;;;;;7.90;4.93;;;3.90;99.90;;;;;;5054793;28;20673;-91
2022/12/18 07:45:06;;;;;;;6.17;5.10;;;3.90;99.90;;;;;;5055746;28;20215;-91
2022/12/18 07:47:41;;;;;;;7.90;6.07;;;3.90;99.90;;;;;;5058469;28;20272;-91
2022/12/18 07:50:13;;;;;;;9.60;6.43;;;3.90;99.90;;;;;;5055703;28;20216;-91
2022/12/18 07:52:49;;;;;;;8.87;7.00;;;3.90;99.90;;;;;;5038829;28;20209;-91
2022/12/18 07:55:27;;;;;;;9.23;7.17;;;3.90;99.90;;;;;;5038818;28;20219;-91
2022/12/18 07:58:11;;;;;;;9.13;7.40;;;3.90;99.90;;;;;;5057370;28;20672;-91
2022/12/18 08:00:43;;;;;;;8.30;6.93;;;3.90;99.90;;;;;;5045665;28;20227;-91
2022/12/18 08:03:17;;;;;;;7.67;6.33;;;3.90;99.90;;;;;;5067184;28;20259;-91
2022/12/18 08:05:48;;;;;;;9.07;7.63;;;3.90;99.90;;;;;;5035271;28;20205;-91
2022/12/18 08:08:19;;;;;;;12.83;6.60;;;3.90;99.90;;;;;;5040470;28;20272;-90
2022/12/18 08:10:53;;;;;;;7.00;6.20;;;3.90;99.90;;;;;;5050062;28;20211;-91
2022/12/18 08:13:25;;;;;;;7.50;6.63;;;3.90;99.90;;;;;;5048389;28;20725;-92
2022/12/18 08:16:00;;;;;;;7.40;6.40;;;3.90;99.90;;;;;;5056541;28;20223;-91
2022/12/18 08:18:34;;;;;;;10.90;6.50;;;3.90;99.90;;;;;;5055862;28;20229;-91
2022/12/18 08:21:11;;;;;;;6.67;5.93;;;3.90;99.90;;;;;;5060102;28;20210;-92
2022/12/18 08:23:43;;;;;;;10.20;6.80;;;3.90;99.90;;;;;;5071523;28;20200;-92
2022/12/18 08:26:16;;;;;;;6.77;5.83;;;3.90;99.90;;;;;;5076377;28;20223;-92
2022/12/18 08:29:05;;;;;;;8.03;5.60;;;3.90;99.90;;;;;;5073816;28;20223;-92
2022/12/18 08:31:54;;;;;;;6.97;5.20;;;3.90;99.90;;;;;;5043644;28;20873;-92
2022/12/18 08:34:28;;;;;;;6.43;5.53;;;3.90;99.90;;;;;;5055523;28;20212;-92
2022/12/18 08:37:00;;;;;;;9.60;5.60;;;3.90;99.90;;;;;;5055916;28;20206;-92
2022/12/18 08:39:41;;;;;;;7.50;5.50;;;3.90;99.90;;;;;;5055727;28;20228;-93
